Portada
METAR-TAF:

METAR-TAF

Aeroports :

Ondangwa, Namíbia

latitud: 17-52-42S, longitud: 015-57-09E, altitud: 1096 m

Observació

L'informe es va fer fa 27 minuts, a les 23:00 UTC
Vent 3 kt del Nord-Est
Temperatura 14°C
Humitat 58%
Pressió 1020 hPa

METAR: FYOA 292300Z AUTO 04003KT //// // ////// 14/06 Q1020

Hora: 01:27 (23:27 UTC)

Pronòstic

L'informe es va fer fa 3 hores i 27 minuts, a les 20:00 UTC
Pronòstic vàlid del 29 a les 21 UTC al 30 a les 06 UTC
Vent kt del Nord
Visibilitat 10 km o més
sense núvols per sota de 1500 mi sense presència de cumulonimbus.
Evolucionant progressivament
l' 30 a les 00 UTC al 30 a les 02 UTC
Vent 5 kt del Est/Nord-Est

TAF: FYOA 292000Z 2921/3006 00000KT CAVOK BECMG 3000/3002 07005KT

Observacions i pronòstics meteorològics de més de 4000 aeroports (METAR i TAF).

Les estacions disponibles són els punts grocs i vermells al mapa.

Posi el ratolí al punt desitjat per veure el nom de l'estació.

Feu clic per veure les observacions i els pronòstics meteorològics.

Per canviar el mapa: feu clic els botons verds amb una creu de color negre per apropar; al botó verd amb un guió per allunyar la imatge; o en les fletxes verdes per a mapes adjacents.


METAR-TAF: